Time;durP1;ratioP1;P1;durP2;ratioP2;P2;SDS_P1;SDS_P2;PMS_P1;PMS_P2;Temp;Humidity;BMP_temperature;BMP_pressure;BME280_temperature;BME280_humidity;BME280_pressure;Samples;Min_cycle;Max_cycle;Signal;HPM_P1;HPM_P2
2022/03/22 00:01:51;;;;;;;33.97;15.38;;;3.70;99.90;;;;;;5037386;28;20041;-77
2022/03/22 00:04:17;;;;;;;;;;;3.70;99.90;;;;;;5059202;28;20048;-77
2022/03/22 00:06:44;;;;;;;24.93;15.10;;;3.70;99.90;;;;;;5074166;28;19916;-77
2022/03/22 00:09:10;;;;;;;28.08;15.30;;;3.70;99.90;;;;;;5040305;28;20068;-78
2022/03/22 00:11:36;;;;;;;25.80;14.90;;;3.60;99.90;;;;;;5054805;28;20457;-79
2022/03/22 00:14:06;;;;;;;29.40;15.23;;;3.60;99.90;;;;;;5037031;28;20132;-78
2022/03/22 00:16:31;;;;;;;28.63;15.75;;;3.60;99.90;;;;;;5038259;28;20105;-78
2022/03/22 00:18:57;;;;;;;29.92;15.45;;;3.60;99.90;;;;;;5042312;28;20044;-78
2022/03/22 00:21:23;;;;;;;28.27;16.58;;;3.50;99.90;;;;;;5009788;28;20044;-78
2022/03/22 00:23:49;;;;;;;31.67;16.20;;;3.50;99.90;;;;;;5042121;28;20390;-80
2022/03/22 00:26:15;;;;;;;29.05;15.68;;;3.50;99.90;;;;;;5037809;28;20080;-76
2022/03/22 00:28:40;;;;;;;31.13;17.05;;;3.50;99.90;;;;;;5050550;28;20485;-77
2022/03/22 00:31:07;;;;;;;34.97;16.70;;;3.50;99.90;;;;;;5053477;28;20101;-77
2022/03/22 00:33:33;;;;;;;28.60;16.85;;;3.50;99.90;;;;;;5020781;28;20044;-77
2022/03/22 00:35:59;;;;;;;32.90;17.52;;;3.40;99.90;;;;;;5039814;28;20038;-78
2022/03/22 00:38:26;;;;;;;;;;;3.40;99.90;;;;;;5065906;28;20109;-77
2022/03/22 00:40:52;;;;;;;30.08;17.83;;;3.40;99.90;;;;;;5041643;28;19916;-77
2022/03/22 00:43:19;;;;;;;25.92;14.85;;;3.30;99.90;;;;;;5054168;28;20044;-79
2022/03/22 00:45:46;;;;;;;34.30;19.55;;;3.40;99.90;;;;;;5043873;28;20044;-78
2022/03/22 00:48:12;;;;;;;31.05;17.42;;;3.40;99.90;;;;;;5037253;28;20044;-77
2022/03/22 00:50:40;;;;;;;35.83;20.33;;;3.40;99.90;;;;;;5064557;28;20089;-78
2022/03/22 00:53:07;;;;;;;31.92;17.65;;;3.40;99.90;;;;;;5057339;28;20087;-78
2022/03/22 00:55:34;;;;;;;35.40;21.60;;;3.40;99.90;;;;;;5052884;28;20479;-77
2022/03/22 00:58:00;;;;;;;32.90;19.90;;;3.30;99.90;;;;;;5057129;28;20080;-78
2022/03/22 01:00:26;;;;;;;;;;;3.30;99.90;;;;;;5053751;28;20036;-77
2022/03/22 01:03:00;;;;;;;32.53;16.07;;;3.30;99.90;;;;;;5057479;28;19931;-77
2022/03/22 01:05:28;;;;;;;30.20;17.83;;;3.20;99.90;;;;;;5056247;28;20601;-78
2022/03/22 01:07:57;;;;;;;28.75;16.38;;;3.20;99.90;;;;;;5027344;28;20039;-77
2022/03/22 01:10:25;;;;;;;30.52;15.80;;;3.20;99.90;;;;;;5041370;28;20052;-78
2022/03/22 01:12:56;;;;;;;36.80;17.73;;;3.20;99.90;;;;;;5042282;28;20071;-78
2022/03/22 01:15:26;;;;;;;39.53;21.23;;;3.20;99.90;;;;;;5011027;28;20402;-77
2022/03/22 01:17:56;;;;;;;33.55;19.33;;;3.20;99.90;;;;;;5057908;28;20051;-78
2022/03/22 01:20:25;;;;;;;41.42;22.55;;;3.20;99.90;;;;;;5052612;28;20128;-77
2022/03/22 01:22:53;;;;;;;43.53;22.30;;;3.20;99.90;;;;;;5036200;28;20160;-78
2022/03/22 01:25:23;;;;;;;40.55;21.35;;;3.20;99.90;;;;;;5053320;28;20047;-79
2022/03/22 01:27:49;;;;;;;42.20;23.27;;;3.20;99.90;;;;;;5053191;28;20048;-78
2022/03/22 01:30:19;;;;;;;41.30;22.40;;;3.20;99.90;;;;;;5053222;28;20037;-78
2022/03/22 01:32:46;;;;;;;34.15;20.95;;;3.20;99.90;;;;;;5035981;28;20116;-77
2022/03/22 01:35:12;;;;;;;29.70;19.40;;;3.20;99.90;;;;;;5035962;28;20478;-79
2022/03/22 01:37:38;;;;;;;;;;;3.20;99.90;;;;;;5030364;28;20486;-77
2022/03/22 01:40:06;;;;;;;33.22;18.17;;;3.20;99.90;;;;;;5052892;28;20008;-78
2022/03/22 01:42:38;;;;;;;32.25;17.90;;;3.20;99.90;;;;;;5047271;28;20182;-78
2022/03/22 01:45:04;;;;;;;38.40;19.08;;;3.20;99.90;;;;;;5037939;28;20546;-78
2022/03/22 01:47:30;;;;;;;34.50;18.38;;;3.20;99.90;;;;;;5056545;28;20513;-79
2022/03/22 01:49:56;;;;;;;35.70;18.48;;;3.10;99.90;;;;;;5035500;28;20052;-78
2022/03/22 01:52:24;;;;;;;35.53;18.10;;;3.10;99.90;;;;;;5038398;28;20060;-78
2022/03/22 01:54:55;;;;;;;38.50;18.55;;;3.20;99.90;;;;;;5020493;28;20036;-78
2022/03/22 01:57:23;;;;;;;39.13;19.38;;;3.10;99.90;;;;;;5058540;28;20162;-78
2022/03/22 01:59:50;;;;;;;36.65;19.85;;;3.10;99.90;;;;;;5024836;28;20044;-78
2022/03/22 02:07:46;;;;;;;33.15;18.48;;;3.10;99.90;;;;;;5037470;28;20048;-80
2022/03/22 02:10:13;;;;;;;32.63;19.65;;;3.10;99.90;;;;;;5052977;28;20453;-78
2022/03/22 02:12:40;;;;;;;37.22;19.13;;;3.10;99.90;;;;;;5026387;28;20474;-79
2022/03/22 02:15:07;;;;;;;34.88;18.85;;;3.10;99.90;;;;;;5006454;28;20044;-79
2022/03/22 02:17:42;;;;;;;36.75;18.27;;;3.10;99.90;;;;;;5038733;28;20039;-78
2022/03/22 02:20:08;;;;;;;34.28;19.05;;;3.10;99.90;;;;;;5051711;28;20405;-79
2022/03/22 02:22:50;;;;;;;32.25;17.65;;;3.10;99.90;;;;;;5054498;28;20060;-77
2022/03/22 02:25:16;;;;;;;37.42;19.13;;;3.10;99.90;;;;;;5053343;28;20044;-78
2022/03/22 02:27:46;;;;;;;33.72;20.75;;;3.10;99.90;;;;;;5038200;28;20044;-77
2022/03/22 02:30:13;;;;;;;41.30;20.40;;;3.10;99.90;;;;;;5054703;28;20123;-79
2022/03/22 02:32:39;;;;;;;35.22;19.17;;;3.10;99.90;;;;;;5070041;28;20040;-78
2022/03/22 02:35:08;;;;;;;36.88;19.80;;;3.10;99.90;;;;;;5054410;28;20071;-79
2022/03/22 02:37:34;;;;;;;34.78;20.30;;;3.10;99.90;;;;;;5020216;28;20136;-78
2022/03/22 02:39:59;;;;;;;41.80;22.40;;;3.20;99.90;;;;;;5037224;28;20250;-78
2022/03/22 02:42:25;;;;;;;41.45;21.17;;;3.20;99.90;;;;;;5036954;28;20101;-78
2022/03/22 02:44:51;;;;;;;38.47;22.60;;;3.30;99.90;;;;;;5020893;28;20032;-78
2022/03/22 02:47:18;;;;;;;38.05;25.55;;;3.30;99.90;;;;;;5036062;28;20494;-77
2022/03/22 02:49:44;;;;;;;35.13;21.17;;;3.40;99.90;;;;;;5037124;28;20508;-77
2022/03/22 02:52:09;;;;;;;34.65;19.73;;;3.40;99.90;;;;;;5034234;28;20025;-78
2022/03/22 02:54:35;;;;;;;32.65;20.27;;;3.40;99.90;;;;;;5038969;28;20064;-79
2022/03/22 02:57:01;;;;;;;38.70;21.00;;;3.40;99.90;;;;;;5036268;28;20137;-76
2022/03/22 02:59:27;;;;;;;35.90;19.35;;;3.50;99.90;;;;;;5055991;28;20029;-76
2022/03/22 03:01:53;;;;;;;36.75;22.67;;;3.40;99.90;;;;;;5039266;28;20033;-79
2022/03/22 03:04:18;;;;;;;;;;;3.40;99.90;;;;;;5054536;28;20040;-78
2022/03/22 03:06:45;;;;;;;40.03;21.05;;;3.40;99.90;;;;;;5054626;28;20365;-79
2022/03/22 03:09:11;;;;;;;29.63;19.30;;;3.40;99.90;;;;;;5025897;28;20085;-77
2022/03/22 03:11:37;;;;;;;40.35;19.98;;;3.40;99.90;;;;;;5038701;28;20093;-79
2022/03/22 03:16:47;;;;;;;30.98;18.80;;;3.30;99.90;;;;;;5038462;28;20040;-77
2022/03/22 03:19:13;;;;;;;34.72;19.58;;;3.30;99.90;;;;;;5037584;28;20394;-79
2022/03/22 03:21:39;;;;;;;31.92;18.65;;;3.30;99.90;;;;;;5053616;28;20394;-79
2022/03/22 03:24:04;;;;;;;32.55;19.70;;;3.30;99.90;;;;;;5034788;28;20075;-78
2022/03/22 03:26:32;;;;;;;37.83;24.73;;;3.20;99.90;;;;;;5035549;28;20551;-77
2022/03/22 03:28:59;;;;;;;35.72;21.50;;;3.20;99.90;;;;;;5017999;28;20135;-78
2022/03/22 03:31:25;;;;;;;31.90;17.08;;;3.20;99.90;;;;;;5037273;28;20049;-78
2022/03/22 03:33:51;;;;;;;35.30;18.02;;;3.20;99.90;;;;;;5051056;28;20047;-78
2022/03/22 03:36:16;;;;;;;30.33;19.80;;;3.20;99.90;;;;;;5037155;28;20047;-78
2022/03/22 03:38:42;;;;;;;34.53;19.33;;;3.10;99.90;;;;;;5036301;28;20474;-77
2022/03/22 03:43:57;;;;;;;42.28;22.20;;;3.10;99.90;;;;;;5045042;28;20041;-77
2022/03/22 03:49:08;;;;;;;39.55;22.60;;;3.00;99.90;;;;;;5033928;28;20079;-78
2022/03/22 03:51:34;;;;;;;37.50;20.92;;;3.00;99.90;;;;;;5035979;28;20040;-78
2022/03/22 03:54:00;;;;;;;35.03;19.58;;;3.00;99.90;;;;;;5036525;28;20049;-78
2022/03/22 03:56:26;;;;;;;40.03;21.15;;;3.00;99.90;;;;;;5053559;28;20401;-77
2022/03/22 03:58:54;;;;;;;;;;;2.90;99.90;;;;;;5053549;28;20115;-77
2022/03/22 04:01:21;;;;;;;33.88;18.98;;;2.90;99.90;;;;;;5052979;28;19920;-77
2022/03/22 04:03:47;;;;;;;41.53;22.67;;;2.90;99.90;;;;;;5052493;28;20398;-78
2022/03/22 04:06:13;;;;;;;33.88;19.88;;;2.90;99.90;;;;;;5051778;28;20078;-77
2022/03/22 04:08:40;;;;;;;33.17;19.92;;;2.90;99.90;;;;;;5011555;28;20068;-79
2022/03/22 04:11:06;;;;;;;40.40;19.85;;;2.90;99.90;;;;;;5052728;28;20608;-77
2022/03/22 04:13:32;;;;;;;39.67;21.10;;;2.90;99.90;;;;;;5021715;28;20032;-78
2022/03/22 04:15:57;;;;;;;38.28;20.42;;;2.90;99.90;;;;;;5036791;28;20520;-78
2022/03/22 04:18:24;;;;;;;40.83;23.13;;;2.80;99.90;;;;;;5035158;28;20052;-77
2022/03/22 04:20:51;;;;;;;40.97;23.35;;;2.90;99.90;;;;;;5035684;28;20040;-78
2022/03/22 04:23:16;;;;;;;37.45;21.17;;;2.90;99.90;;;;;;5052062;28;20055;-76
2022/03/22 04:25:42;;;;;;;42.03;22.13;;;2.80;99.90;;;;;;5024168;28;20048;-79
2022/03/22 04:33:36;;;;;;;37.22;19.65;;;2.80;99.90;;;;;;5037621;28;20067;-78
2022/03/22 04:36:02;;;;;;;33.67;19.60;;;2.80;99.90;;;;;;5034379;28;20490;-77
2022/03/22 04:38:28;;;;;;;42.13;20.20;;;2.80;99.90;;;;;;5027337;28;20456;-78
2022/03/22 04:40:54;;;;;;;42.50;22.17;;;2.90;99.90;;;;;;5051786;28;20040;-78
2022/03/22 04:43:19;;;;;;;33.72;19.38;;;2.90;99.90;;;;;;5051883;28;20037;-79
2022/03/22 04:45:45;;;;;;;38.78;19.73;;;2.90;99.90;;;;;;5019389;28;20097;-77
2022/03/22 04:48:12;;;;;;;40.92;20.83;;;2.90;99.90;;;;;;5012901;28;20410;-76
2022/03/22 04:50:37;;;;;;;;;;;2.90;99.90;;;;;;5053683;28;20036;-79
2022/03/22 04:58:34;;;;;;;35.63;19.55;;;2.90;99.90;;;;;;5051161;28;20044;-80
2022/03/22 05:01:00;;;;;;;37.25;19.85;;;2.90;99.90;;;;;;5045236;28;20070;-76
2022/03/22 05:03:26;;;;;;;44.83;20.77;;;2.90;99.90;;;;;;5034082;28;20467;-78
2022/03/22 05:08:36;;;;;;;38.55;20.40;;;2.90;99.90;;;;;;5038263;28;20055;-78
2022/03/22 05:11:02;;;;;;;42.08;22.13;;;2.90;99.90;;;;;;5033542;28;20040;-79
2022/03/22 05:13:27;;;;;;;36.28;19.63;;;2.80;99.90;;;;;;5035190;28;20043;-77
2022/03/22 05:15:53;;;;;;;38.88;20.40;;;2.80;99.90;;;;;;5051975;28;20039;-78
2022/03/22 05:18:22;;;;;;;42.45;21.02;;;2.80;99.90;;;;;;5026004;28;20089;-78
2022/03/22 05:20:47;;;;;;;30.67;19.30;;;2.80;99.90;;;;;;5046754;28;20246;-78
2022/03/22 05:23:13;;;;;;;44.03;20.50;;;2.80;99.90;;;;;;5031610;28;20127;-78
2022/03/22 05:25:39;;;;;;;37.85;20.13;;;2.80;99.90;;;;;;5053295;28;20059;-78
2022/03/22 05:28:05;;;;;;;38.58;18.52;;;2.80;99.90;;;;;;5052146;28;20036;-79
2022/03/22 05:30:31;;;;;;;41.90;20.13;;;2.70;99.90;;;;;;5050358;28;20044;-79
2022/03/22 05:32:57;;;;;;;30.33;19.25;;;2.70;99.90;;;;;;5049313;28;20040;-77
2022/03/22 05:35:23;;;;;;;;;;;2.70;99.90;;;;;;5026123;28;20047;-79
2022/03/22 05:37:50;;;;;;;35.88;19.45;;;2.70;99.90;;;;;;5049844;28;19917;-79
2022/03/22 05:40:16;;;;;;;35.45;19.73;;;2.60;99.90;;;;;;5029066;28;20037;-78
2022/03/22 05:42:42;;;;;;;;;;;2.60;99.90;;;;;;5033626;28;20082;-79
2022/03/22 05:45:09;;;;;;;30.77;17.75;;;2.60;99.90;;;;;;5042724;28;19951;-79
2022/03/22 05:47:36;;;;;;;39.90;20.83;;;2.60;99.90;;;;;;5024336;28;20048;-77
2022/03/22 05:50:02;;;;;;;36.28;19.23;;;2.60;99.90;;;;;;5033265;28;20078;-78
2022/03/22 05:52:27;;;;;;;;;;;2.60;99.90;;;;;;5049542;28;20142;-79
2022/03/22 05:54:53;;;;;;;34.72;18.95;;;2.60;99.90;;;;;;5016149;28;19924;-78
2022/03/22 05:57:19;;;;;;;33.40;18.15;;;2.50;99.90;;;;;;5050651;28;20401;-77
2022/03/22 05:59:45;;;;;;;39.00;20.02;;;2.60;99.90;;;;;;5017240;28;20041;-80
2022/03/22 06:02:10;;;;;;;35.65;20.17;;;2.60;99.90;;;;;;5032266;28;20051;-77
2022/03/22 06:04:36;;;;;;;38.78;19.92;;;2.70;99.90;;;;;;5017364;28;20112;-77
2022/03/22 06:07:02;;;;;;;40.67;21.20;;;2.70;99.90;;;;;;5032915;28;20521;-78
2022/03/22 06:09:29;;;;;;;33.05;19.38;;;2.80;99.90;;;;;;5049846;28;20040;-78
2022/03/22 06:11:55;;;;;;;38.45;21.45;;;2.80;99.90;;;;;;5033434;28;20032;-78
2022/03/22 06:14:21;;;;;;;40.85;19.98;;;2.90;99.90;;;;;;5030422;28;20391;-78
2022/03/22 06:16:47;;;;;;;38.45;19.60;;;3.00;99.90;;;;;;5004813;28;20056;-78
2022/03/22 06:19:13;;;;;;;39.10;20.35;;;3.10;99.90;;;;;;5031765;28;20051;-78
2022/03/22 06:21:38;;;;;;;41.63;21.33;;;3.10;99.90;;;;;;5004827;28;20470;-78
2022/03/22 06:24:05;;;;;;;35.40;20.60;;;3.30;99.90;;;;;;5033271;28;20043;-78
2022/03/22 06:26:30;;;;;;;;;;;3.40;99.90;;;;;;5033727;28;20494;-78
2022/03/22 06:29:00;;;;;;;37.70;20.42;;;3.50;99.90;;;;;;5016555;28;19967;-78
2022/03/22 06:31:27;;;;;;;40.60;21.02;;;3.60;99.90;;;;;;5013610;28;20123;-78
2022/03/22 06:33:53;;;;;;;34.40;20.05;;;3.70;99.90;;;;;;5015520;28;20028;-79
2022/03/22 06:36:19;;;;;;;43.92;21.20;;;3.90;99.90;;;;;;5033130;28;20033;-78
2022/03/22 06:38:45;;;;;;;38.15;20.15;;;4.00;99.90;;;;;;5022990;28;20424;-78
2022/03/22 06:41:10;;;;;;;41.20;21.50;;;4.10;99.90;;;;;;5031074;28;20493;-78
2022/03/22 06:43:36;;;;;;;35.17;20.40;;;4.20;99.90;;;;;;5045215;28;20036;-79
2022/03/22 06:46:08;;;;;;;41.80;20.55;;;4.30;99.90;;;;;;5001858;28;20059;-85
2022/03/22 06:48:37;;;;;;;32.70;19.30;;;4.40;99.90;;;;;;5047372;28;20048;-83
2022/03/22 06:51:03;;;;;;;30.48;19.52;;;4.50;99.90;;;;;;5044765;28;20113;-82
2022/03/22 06:53:29;;;;;;;39.90;22.40;;;4.60;99.90;;;;;;5060617;28;20051;-85
2022/03/22 06:55:55;;;;;;;38.85;21.92;;;4.70;99.90;;;;;;5044047;28;20470;-81
2022/03/22 06:58:24;;;;;;;39.58;22.25;;;4.80;99.90;;;;;;5055989;28;20048;-81
2022/03/22 07:00:50;;;;;;;32.42;19.27;;;5.00;99.90;;;;;;5026969;28;20058;-79
2022/03/22 07:03:18;;;;;;;43.05;21.55;;;5.10;99.90;;;;;;5040412;28;20050;-81
2022/03/22 07:05:46;;;;;;;36.08;19.83;;;5.20;99.90;;;;;;5043267;28;20505;-82
2022/03/22 07:08:13;;;;;;;36.42;19.98;;;5.30;99.90;;;;;;5055795;28;20121;-81
2022/03/22 07:10:38;;;;;;;34.22;21.02;;;5.40;99.90;;;;;;5025536;28;20046;-82
2022/03/22 07:13:11;;;;;;;33.45;18.58;;;5.50;99.90;;;;;;5038723;28;20128;-80
2022/03/22 07:15:38;;;;;;;33.05;20.45;;;5.60;99.90;;;;;;5038111;28;20043;-79
2022/03/22 07:18:06;;;;;;;45.15;19.00;;;5.80;99.90;;;;;;5029619;28;20045;-81
2022/03/22 07:20:33;;;;;;;39.22;20.27;;;5.90;99.90;;;;;;5017414;28;20076;-80
2022/03/22 07:23:00;;;;;;;40.75;22.80;;;6.10;99.90;;;;;;5053723;28;20047;-81
2022/03/22 07:25:26;;;;;;;44.47;23.02;;;6.20;99.90;;;;;;5040054;28;20058;-80
2022/03/22 07:27:53;;;;;;;38.83;21.00;;;6.40;99.90;;;;;;5022429;28;20036;-81
2022/03/22 07:30:19;;;;;;;39.88;21.15;;;6.50;99.90;;;;;;5019426;28;20082;-78
2022/03/22 07:32:45;;;;;;;38.58;20.15;;;6.70;99.90;;;;;;5026613;28;20047;-82
2022/03/22 07:35:17;;;;;;;31.83;20.27;;;6.80;99.90;;;;;;5078113;28;20040;-83
2022/03/22 07:37:44;;;;;;;38.90;20.17;;;6.90;99.90;;;;;;5066512;28;20051;-83
2022/03/22 07:40:19;;;;;;;31.33;20.10;;;7.00;99.90;;;;;;5019618;28;20053;-83
2022/03/22 07:42:54;;;;;;;34.10;19.77;;;7.10;99.90;;;;;;5046199;28;20048;-84
2022/03/22 07:45:20;;;;;;;34.13;19.40;;;7.10;99.90;;;;;;5044879;28;20064;-80
2022/03/22 07:47:48;;;;;;;36.85;19.45;;;7.20;99.90;;;;;;5027685;28;20323;-81
2022/03/22 07:53:01;;;;;;;35.13;19.83;;;7.20;99.90;;;;;;5054550;28;20426;-83
2022/03/22 07:55:52;;;;;;;33.90;20.27;;;7.30;99.90;;;;;;5035259;28;20042;-81
2022/03/22 07:58:17;;;;;;;36.72;20.48;;;8.40;99.90;;;;;;5042937;28;20562;-81
2022/03/22 08:00:43;;;;;;;33.67;18.85;;;7.40;99.90;;;;;;5000036;28;20045;-80
2022/03/22 08:03:12;;;;;;;30.38;19.15;;;7.60;99.90;;;;;;5019231;28;20119;-82
2022/03/22 08:05:39;;;;;;;37.95;19.77;;;7.60;99.90;;;;;;5020968;28;20078;-78
2022/03/22 08:08:06;;;;;;;35.55;19.58;;;7.90;99.90;;;;;;5038009;28;20089;-79
2022/03/22 08:10:32;;;;;;;;;;;8.00;99.90;;;;;;5054112;28;20436;-78
2022/03/22 08:12:59;;;;;;;31.58;18.27;;;8.30;99.90;;;;;;5039208;28;19920;-82
2022/03/22 08:15:25;;;;;;;46.53;20.40;;;8.40;99.90;;;;;;5036832;28;20060;-81
2022/03/22 08:17:54;;;;;;;38.83;19.13;;;8.60;99.90;;;;;;5018912;28;20044;-80
2022/03/22 08:20:21;;;;;;;34.72;19.50;;;8.80;99.90;;;;;;5030511;28;20055;-80
2022/03/22 08:22:52;;;;;;;31.67;18.55;;;9.00;99.90;;;;;;5049434;28;20047;-82
2022/03/22 08:25:23;;;;;;;32.40;18.73;;;9.20;99.90;;;;;;5053190;28;20048;-77
2022/03/22 08:27:49;;;;;;;38.35;20.20;;;9.40;99.90;;;;;;5042079;28;20127;-81
2022/03/22 08:30:18;;;;;;;36.13;19.20;;;9.50;99.90;;;;;;5036002;28;20094;-78
2022/03/22 08:32:43;;;;;;;41.70;20.50;;;9.60;99.90;;;;;;5036651;28;20040;-80
2022/03/22 08:35:10;;;;;;;34.85;19.30;;;9.60;99.90;;;;;;5025477;28;20041;-79
2022/03/22 08:37:36;;;;;;;31.63;18.70;;;9.70;99.90;;;;;;5052948;28;20036;-80
2022/03/22 08:40:03;;;;;;;33.70;19.70;;;9.70;99.90;;;;;;5018709;28;20106;-80
2022/03/22 08:42:29;;;;;;;33.15;17.65;;;9.80;99.90;;;;;;5054756;28;20049;-81
2022/03/22 08:44:55;;;;;;;33.83;18.10;;;9.80;99.90;;;;;;5023983;28;20041;-84
2022/03/22 08:47:21;;;;;;;29.38;16.35;;;9.90;99.90;;;;;;5046206;28;20506;-80
2022/03/22 08:49:48;;;;;;;28.42;16.92;;;10.00;99.90;;;;;;5004751;28;20350;-82
2022/03/22 08:52:14;;;;;;;34.63;18.42;;;10.20;99.90;;;;;;5021695;28;20439;-80
2022/03/22 08:54:40;;;;;;;;;;;10.30;99.90;;;;;;5020899;28;20079;-80
2022/03/22 08:57:06;;;;;;;33.60;18.45;;;10.50;99.90;;;;;;5068850;28;19967;-77
2022/03/22 08:59:32;;;;;;;32.40;18.65;;;10.70;99.90;;;;;;5016402;28;20047;-78
2022/03/22 09:01:58;;;;;;;31.20;19.52;;;10.90;99.90;;;;;;5037436;28;20048;-79
2022/03/22 09:07:09;;;;;;;38.28;18.63;;;11.30;99.90;;;;;;5028737;28;20055;-80
2022/03/22 09:09:35;;;;;;;34.95;18.23;;;11.50;99.90;;;;;;5015951;28;20044;-82
2022/03/22 09:12:00;;;;;;;31.80;18.02;;;11.70;99.90;;;;;;5020934;28;20041;-81
2022/03/22 09:14:28;;;;;;;31.33;19.33;;;11.90;99.90;;;;;;5055005;28;20544;-78
2022/03/22 09:16:53;;;;;;;31.60;17.98;;;12.00;99.90;;;;;;5011043;28;20327;-80
2022/03/22 09:19:19;;;;;;;30.35;18.60;;;12.20;99.90;;;;;;5029259;28;20037;-82
2022/03/22 09:21:45;;;;;;;;;;;12.40;99.90;;;;;;5020509;28;20503;-82
2022/03/22 09:24:11;;;;;;;27.85;17.40;;;12.50;99.90;;;;;;5034925;28;19916;-81
2022/03/22 09:26:37;;;;;;;28.35;17.55;;;12.60;99.90;;;;;;5017318;28;20127;-80
2022/03/22 09:29:03;;;;;;;37.53;17.48;;;12.70;99.90;;;;;;4999391;28;20445;-80
2022/03/22 09:31:28;;;;;;;30.55;17.45;;;12.80;99.90;;;;;;5036652;28;20055;-79
2022/03/22 09:33:56;;;;;;;;;;;12.90;99.90;;;;;;5035063;28;20040;-80
2022/03/22 09:36:21;;;;;;;29.15;16.50;;;13.00;99.90;;;;;;5053851;28;19951;-80
2022/03/22 09:38:48;;;;;;;33.83;16.98;;;13.10;99.90;;;;;;5026426;28;20149;-80
2022/03/22 09:41:14;;;;;;;;;;;13.20;99.90;;;;;;5039466;28;20112;-79
2022/03/22 09:43:46;;;;;;;36.37;18.07;;;13.30;99.90;;;;;;5039615;28;19924;-79
2022/03/22 09:46:18;;;;;;;32.20;17.65;;;13.30;99.90;;;;;;5026129;28;20063;-79
2022/03/22 09:48:46;;;;;;;31.50;18.52;;;13.40;99.90;;;;;;5055366;28;20045;-79
2022/03/22 09:53:57;;;;;;;26.20;16.35;;;13.60;99.90;;;;;;5042726;28;20119;-79
2022/03/22 09:56:26;;;;;;;31.45;18.02;;;13.70;99.90;;;;;;5051390;28;20037;-79
2022/03/22 09:58:52;;;;;;;34.22;19.33;;;13.80;99.90;;;;;;5035475;28;20048;-81
2022/03/22 10:01:18;;;;;;;34.08;18.50;;;13.80;99.90;;;;;;5033451;28;20144;-79
2022/03/22 10:04:08;;;;;;;32.50;19.33;;;13.80;99.90;;;;;;5020887;28;20048;-82
2022/03/22 10:06:35;;;;;;;28.45;15.85;;;14.10;99.90;;;;;;5034133;28;20068;-77
2022/03/22 10:09:05;;;;;;;31.42;16.88;;;14.00;99.90;;;;;;5049582;28;20036;-79
2022/03/22 10:11:42;;;;;;;32.47;18.23;;;14.10;99.90;;;;;;5041283;28;20095;-82
2022/03/22 10:14:09;;;;;;;31.75;17.33;;;14.20;99.90;;;;;;5031736;28;20553;-79
2022/03/22 10:16:50;;;;;;;29.70;17.10;;;14.40;99.90;;;;;;5048692;28;20045;-79
2022/03/22 10:19:24;;;;;;;30.48;17.13;;;14.60;99.90;;;;;;5060056;28;20041;-79
2022/03/22 10:21:51;;;;;;;33.80;16.80;;;14.70;99.90;;;;;;5033346;28;20083;-78
2022/03/22 10:24:18;;;;;;;26.67;16.85;;;14.90;99.90;;;;;;5038059;28;20128;-81
2022/03/22 10:26:46;;;;;;;26.80;15.60;;;15.10;99.90;;;;;;5037795;28;20110;-80
2022/03/22 10:29:13;;;;;;;27.95;16.13;;;15.20;99.90;;;;;;5016984;28;20513;-81
2022/03/22 10:31:41;;;;;;;28.23;15.93;;;15.30;99.90;;;;;;5051568;28;20048;-81
2022/03/22 10:34:10;;;;;;;28.13;14.80;;;15.30;99.90;;;;;;5034184;28;20048;-80
2022/03/22 10:36:37;;;;;;;29.85;15.32;;;15.40;99.90;;;;;;5059423;28;20140;-79
2022/03/22 10:39:08;;;;;;;28.83;15.93;;;15.50;99.90;;;;;;5040421;28;20039;-81
2022/03/22 10:41:40;;;;;;;30.42;16.33;;;15.60;99.90;;;;;;5032374;28;20049;-78
2022/03/22 10:44:08;;;;;;;29.15;15.32;;;15.70;99.90;;;;;;5068909;28;20040;-79
2022/03/22 10:46:36;;;;;;;28.73;14.77;;;15.80;99.90;;;;;;5034660;28;20049;-79
2022/03/22 10:49:08;;;;;;;26.92;14.65;;;15.90;99.90;;;;;;5038283;28;20044;-78
2022/03/22 10:51:45;;;;;;;27.08;14.27;;;16.00;99.90;;;;;;5050400;28;20053;-78
2022/03/22 10:54:13;;;;;;;24.48;14.13;;;16.00;99.90;;;;;;5042796;28;20147;-80
2022/03/22 10:56:48;;;;;;;27.05;14.13;;;16.10;99.90;;;;;;5042156;28;20041;-79
2022/03/22 10:59:18;;;;;;;28.27;13.73;;;16.20;99.90;;;;;;5049519;28;20122;-77
2022/03/22 11:01:45;;;;;;;28.58;14.73;;;16.30;99.90;;;;;;5052896;28;20481;-78
2022/03/22 11:04:15;;;;;;;28.00;15.40;;;16.40;99.90;;;;;;5043062;28;20851;-78
2022/03/22 11:06:42;;;;;;;25.55;14.73;;;16.50;99.90;;;;;;5046317;28;20041;-77
2022/03/22 11:09:09;;;;;;;28.00;14.13;;;16.50;99.90;;;;;;5035220;28;20044;-77
2022/03/22 11:11:36;;;;;;;26.85;15.07;;;16.50;99.90;;;;;;5026382;28;20047;-79
2022/03/22 11:14:02;;;;;;;23.17;14.40;;;16.60;99.90;;;;;;5034329;28;20032;-78
2022/03/22 11:16:32;;;;;;;26.83;14.90;;;16.70;99.90;;;;;;5025693;28;20044;-77
2022/03/22 11:18:59;;;;;;;25.73;14.70;;;16.80;99.90;;;;;;5050945;28;20058;-78
2022/03/22 11:21:27;;;;;;;26.50;14.60;;;16.90;99.90;;;;;;5035579;28;20473;-79
2022/03/22 11:24:09;;;;;;;22.92;14.85;;;17.00;99.90;;;;;;5035743;28;20048;-78
2022/03/22 11:26:46;;;;;;;24.60;14.55;;;17.10;99.90;;;;;;5052309;28;20047;-77
2022/03/22 11:29:20;;;;;;;25.63;14.80;;;17.20;99.90;;;;;;5034929;28;20143;-78
2022/03/22 11:34:09;;;;;;;29.40;15.80;;;17.40;99.90;;;;;;5043441;28;20041;-78
2022/03/22 11:34:34;;;;;;;25.15;14.93;;;17.40;99.90;;;;;;5045030;28;20123;-78
2022/03/22 11:37:01;;;;;;;34.03;16.00;;;17.50;99.90;;;;;;5031996;28;20060;-80
2022/03/22 11:42:18;;;;;;;26.42;16.38;;;17.70;99.90;;;;;;5050588;28;20123;-80
2022/03/22 11:45:02;;;;;;;30.27;16.58;;;17.70;98.50;;;;;;5033180;28;20100;-78
2022/03/22 11:47:42;;;;;;;28.67;16.88;;;17.70;94.70;;;;;;5049609;28;20059;-78
2022/03/22 11:50:17;;;;;;;27.20;16.13;;;17.70;97.10;;;;;;5046369;28;20044;-77
2022/03/22 11:52:44;;;;;;;34.00;17.05;;;17.80;98.00;;;;;;5058682;28;20084;-77
2022/03/22 11:55:18;;;;;;;30.38;16.75;;;17.90;98.20;;;;;;5018011;28;20517;-77
2022/03/22 11:58:04;;;;;;;28.90;16.25;;;18.00;97.20;;;;;;5047359;28;20041;-79
2022/03/22 12:00:56;;;;;;;26.52;16.05;;;18.10;97.00;;;;;;5034026;28;20044;-76
2022/03/22 12:03:29;;;;;;;26.27;16.33;;;18.20;95.50;;;;;;5024482;28;20072;-76
2022/03/22 12:05:55;;;;;;;27.52;17.00;;;18.30;96.30;;;;;;5042014;28;20055;-77
2022/03/22 12:08:25;;;;;;;31.42;15.98;;;18.40;94.10;;;;;;5044360;28;20041;-75
2022/03/22 12:10:53;;;;;;;26.17;15.63;;;18.50;91.80;;;;;;5040868;28;20037;-78
2022/03/22 12:13:19;;;;;;;26.77;16.38;;;18.60;91.40;;;;;;5043064;28;20051;-80
2022/03/22 12:15:47;;;;;;;29.15;14.85;;;18.60;91.40;;;;;;5048256;28;20044;-80
2022/03/22 12:18:13;;;;;;;27.73;14.48;;;18.80;91.30;;;;;;5043427;28;20119;-78
2022/03/22 12:20:39;;;;;;;29.77;15.07;;;18.80;90.80;;;;;;5053726;28;20126;-79
2022/03/22 12:23:06;;;;;;;26.45;15.18;;;18.90;90.90;;;;;;5051586;28;20498;-80
2022/03/22 12:25:35;;;;;;;25.67;15.63;;;19.00;90.00;;;;;;5040630;28;20047;-79
2022/03/22 12:28:09;;;;;;;30.25;15.55;;;19.10;88.00;;;;;;5053422;28;20093;-79
2022/03/22 12:30:39;;;;;;;23.20;14.38;;;19.20;87.00;;;;;;5056875;28;20136;-77
2022/03/22 12:33:11;;;;;;;21.42;13.90;;;19.30;84.30;;;;;;5052725;28;20048;-78
2022/03/22 12:35:38;;;;;;;33.42;15.40;;;19.30;85.90;;;;;;5048088;28;20040;-78
2022/03/22 12:38:04;;;;;;;28.30;14.63;;;19.40;85.20;;;;;;5032888;28;20052;-79
2022/03/22 12:40:31;;;;;;;24.65;14.90;;;19.40;85.10;;;;;;5051690;28;20036;-77
2022/03/22 12:42:57;;;;;;;29.42;15.57;;;19.60;85.60;;;;;;5011024;28;20418;-77
2022/03/22 12:45:27;;;;;;;26.33;14.52;;;19.70;84.10;;;;;;5022935;28;20039;-79
2022/03/22 12:47:56;;;;;;;22.90;14.57;;;19.80;83.40;;;;;;5055657;28;20358;-80
2022/03/22 12:50:24;;;;;;;21.40;14.27;;;19.80;83.90;;;;;;5047843;28;20077;-82
2022/03/22 12:52:52;;;;;;;23.15;14.40;;;19.90;83.00;;;;;;5034705;28;20127;-81
2022/03/22 12:55:20;;;;;;;23.17;13.63;;;20.00;81.30;;;;;;5022491;28;20129;-80
2022/03/22 12:57:48;;;;;;;23.98;14.00;;;20.00;79.10;;;;;;5046556;28;20032;-79
2022/03/22 13:00:41;;;;;;;28.30;14.25;;;20.10;78.00;;;;;;5072594;28;20060;-79
2022/03/22 13:03:06;;;;;;;28.05;15.07;;;20.10;76.20;;;;;;5027246;28;20048;-79
2022/03/22 13:05:32;;;;;;;26.73;13.90;;;20.20;77.60;;;;;;5038935;28;20528;-80
2022/03/22 13:07:58;;;;;;;27.10;15.25;;;20.30;75.40;;;;;;5016344;28;20059;-79
2022/03/22 13:13:20;;;;;;;27.25;14.30;;;20.40;77.00;;;;;;5019414;28;20117;-88
2022/03/22 13:15:52;;;;;;;21.77;13.00;;;20.50;72.80;;;;;;5011976;28;20386;-79
2022/03/22 13:18:20;;;;;;;27.10;14.73;;;20.60;74.70;;;;;;5049648;28;20040;-78
2022/03/22 13:20:46;;;;;;;23.27;13.88;;;20.70;75.00;;;;;;5074187;28;20082;-77
2022/03/22 13:23:14;;;;;;;23.90;14.45;;;20.80;74.90;;;;;;5032410;28;20048;-77